Time;durP1;ratioP1;P1;durP2;ratioP2;P2;SDS_P1;SDS_P2;PMS_P1;PMS_P2;Temp;Humidity;BMP_temperature;BMP_pressure;BME280_temperature;BME280_humidity;BME280_pressure;Samples;Min_cycle;Max_cycle;Signal;HPM_P1;HPM_P2
2022/09/28 00:01:26;;;;;;;4.30;2.37;;;10.40;99.90;;;;;;5050368;28;20025;-82
2022/09/28 00:03:58;;;;;;;3.97;2.20;;;10.30;99.90;;;;;;5050444;28;20087;-82
2022/09/28 00:06:26;;;;;;;4.93;2.20;;;10.40;99.90;;;;;;5032559;28;20082;-82
2022/09/28 00:08:52;;;;;;;4.93;2.67;;;10.30;99.90;;;;;;5032445;28;20072;-82
2022/09/28 00:11:20;;;;;;;4.23;2.70;;;10.30;99.90;;;;;;5032675;28;20464;-83
2022/09/28 00:13:51;;;;;;;4.50;3.00;;;10.30;99.90;;;;;;5016090;28;20071;-82
2022/09/28 00:16:20;;;;;;;5.67;3.07;;;10.30;99.90;;;;;;5032312;28;20033;-82
2022/09/28 00:18:46;;;;;;;4.78;2.80;;;10.40;99.90;;;;;;5032159;28;20495;-83
2022/09/28 00:21:15;;;;;;;5.03;3.30;;;10.30;99.90;;;;;;5032377;28;20116;-82
2022/09/28 00:26:27;;;;;;;5.37;3.10;;;10.30;99.90;;;;;;5053726;28;20480;-83
2022/09/28 00:28:54;;;;;;;5.10;3.10;;;10.30;99.90;;;;;;5035853;28;20072;-82
2022/09/28 00:31:21;;;;;;;6.40;3.90;;;10.30;99.90;;;;;;5019461;28;20037;-83
2022/09/28 00:33:51;;;;;;;4.80;3.40;;;10.30;99.90;;;;;;5019242;28;20043;-82
2022/09/28 00:36:18;;;;;;;6.13;3.60;;;10.40;99.90;;;;;;5035854;28;20059;-83
2022/09/28 00:38:45;;;;;;;6.50;4.03;;;10.40;99.90;;;;;;5035743;28;20033;-83
2022/09/28 00:41:11;;;;;;;6.77;4.10;;;10.30;99.90;;;;;;5035958;28;20029;-83
2022/09/28 00:43:37;;;;;;;5.33;3.33;;;10.30;99.90;;;;;;5053493;28;20075;-83
2022/09/28 00:46:09;;;;;;;8.60;3.70;;;10.30;99.90;;;;;;5053546;28;20028;-82
2022/09/28 00:48:38;;;;;;;5.90;4.00;;;10.30;99.90;;;;;;5053427;28;20032;-82
2022/09/28 00:51:10;;;;;;;6.50;3.77;;;10.30;99.90;;;;;;5035645;28;20040;-82
2022/09/28 00:53:42;;;;;;;5.30;3.43;;;10.30;99.90;;;;;;5053372;28;20033;-83
2022/09/28 00:56:13;;;;;;;6.47;4.00;;;10.20;99.90;;;;;;5053262;28;20497;-82
2022/09/28 00:58:44;;;;;;;6.90;4.03;;;10.20;99.90;;;;;;5052993;28;20033;-82
2022/09/28 01:01:11;;;;;;;6.40;3.83;;;10.10;99.90;;;;;;5053617;28;20282;-82
2022/09/28 01:03:40;;;;;;;6.37;4.07;;;10.10;99.90;;;;;;5035310;28;20060;-82
2022/09/28 01:06:07;;;;;;;7.90;4.22;;;10.20;99.90;;;;;;5018745;28;20102;-82
2022/09/28 01:08:34;;;;;;;7.90;4.73;;;10.10;99.90;;;;;;5035092;28;20029;-82
2022/09/28 01:11:02;;;;;;;7.47;4.50;;;10.10;99.90;;;;;;5018799;28;20033;-82
2022/09/28 01:13:30;;;;;;;7.40;4.60;;;10.00;99.90;;;;;;5035100;28;20116;-83
2022/09/28 01:16:18;;;;;;;9.02;4.82;;;10.00;99.90;;;;;;5035084;28;20119;-82
2022/09/28 01:19:02;;;;;;;7.37;5.37;;;10.00;99.90;;;;;;5018728;28;20068;-82
2022/09/28 01:22:07;;;;;;;8.50;5.70;;;10.00;99.90;;;;;;5034888;28;20040;-82
2022/09/28 01:25:05;;;;;;;8.53;5.60;;;10.00;99.90;;;;;;5026877;28;20070;-82
2022/09/28 01:27:43;;;;;;;7.90;5.33;;;10.00;99.90;;;;;;5052554;28;20036;-83
2022/09/28 01:30:15;;;;;;;9.50;5.47;;;10.00;99.90;;;;;;5018072;28;20032;-82
2022/09/28 01:33:03;;;;;;;7.63;5.10;;;10.10;99.90;;;;;;5034608;28;20052;-82
2022/09/28 01:35:36;;;;;;;8.60;5.50;;;10.10;99.90;;;;;;5034698;28;20035;-82
2022/09/28 01:38:20;;;;;;;8.87;6.17;;;10.10;99.90;;;;;;5052571;28;20456;-82
2022/09/28 01:40:47;;;;;;;9.03;5.70;;;10.10;99.90;;;;;;5034617;28;20457;-82
2022/09/28 01:43:21;;;;;;;8.67;5.93;;;10.10;99.90;;;;;;5053162;28;20037;-82
2022/09/28 01:45:52;;;;;;;7.63;5.50;;;10.10;99.90;;;;;;5017949;28;20111;-82
2022/09/28 01:48:34;;;;;;;8.60;5.40;;;10.10;99.90;;;;;;5034715;28;20087;-82
2022/09/28 01:51:04;;;;;;;7.73;5.23;;;10.20;99.90;;;;;;5034383;28;20041;-82
2022/09/28 01:53:41;;;;;;;7.90;5.30;;;10.10;99.90;;;;;;5052123;28;20025;-82
2022/09/28 01:56:17;;;;;;;8.70;5.33;;;10.10;99.90;;;;;;5034196;28;20032;-82
2022/09/28 01:58:51;;;;;;;7.97;5.20;;;10.10;99.90;;;;;;5033993;28;20075;-82
2022/09/28 02:01:26;;;;;;;8.53;5.83;;;10.10;99.90;;;;;;5033963;28;20507;-82
2022/09/28 02:04:10;;;;;;;9.20;5.90;;;10.10;99.90;;;;;;5034143;28;20021;-82
2022/09/28 02:06:41;;;;;;;10.40;6.77;;;10.10;99.90;;;;;;5033927;28;20029;-82
2022/09/28 02:09:11;;;;;;;9.40;6.23;;;10.10;99.90;;;;;;5051817;28;20070;-82
2022/09/28 02:11:46;;;;;;;10.80;7.13;;;10.10;99.90;;;;;;5033836;28;20120;-82
2022/09/28 02:14:16;;;;;;;11.43;7.07;;;10.10;99.90;;;;;;5017407;28;20029;-82
2022/09/28 02:16:46;;;;;;;9.60;6.33;;;10.00;99.90;;;;;;5033638;28;20025;-82
2022/09/28 02:19:22;;;;;;;10.52;6.57;;;10.00;99.90;;;;;;5033712;28;20119;-82
2022/09/28 02:22:00;;;;;;;11.07;6.70;;;10.00;99.90;;;;;;5033616;28;20033;-82
2022/09/28 02:24:34;;;;;;;10.13;6.80;;;10.00;99.90;;;;;;5033872;28;20064;-82
2022/09/28 02:27:08;;;;;;;12.50;6.77;;;10.00;99.90;;;;;;5033557;28;20029;-82
2022/09/28 02:29:34;;;;;;;9.57;6.27;;;10.00;99.90;;;;;;5033421;28;20041;-82
2022/09/28 02:32:00;;;;;;;7.63;6.07;;;10.00;99.90;;;;;;5033587;28;20086;-82
2022/09/28 02:34:26;;;;;;;7.90;6.20;;;10.00;99.90;;;;;;5017047;28;20115;-82
2022/09/28 02:36:52;;;;;;;10.97;6.20;;;10.00;99.90;;;;;;5033202;28;20132;-82
2022/09/28 02:39:18;;;;;;;11.40;6.77;;;10.00;99.90;;;;;;5016910;28;20469;-82
2022/09/28 02:42:19;;;;;;;10.47;7.03;;;9.90;99.90;;;;;;5033551;28;20021;-82
2022/09/28 02:45:26;;;;;;;10.53;7.20;;;10.00;99.90;;;;;;5033218;28;20039;-82
2022/09/28 02:48:02;;;;;;;13.20;8.77;;;10.00;99.90;;;;;;5033217;28;20499;-82
2022/09/28 02:50:44;;;;;;;11.97;8.00;;;10.00;99.90;;;;;;5033195;28;20121;-82
2022/09/28 02:53:30;;;;;;;8.83;6.70;;;10.00;99.90;;;;;;5051127;28;20469;-82
2022/09/28 02:56:11;;;;;;;10.87;7.17;;;10.00;99.90;;;;;;5033367;28;20455;-83
2022/09/28 02:59:16;;;;;;;10.53;7.63;;;9.90;99.90;;;;;;5050825;28;20053;-82
2022/09/28 03:02:02;;;;;;;10.50;7.90;;;9.90;99.90;;;;;;5050961;28;20025;-82
2022/09/28 03:04:46;;;;;;;11.63;7.60;;;9.90;99.90;;;;;;5033261;28;20048;-82
2022/09/28 03:07:24;;;;;;;10.90;7.73;;;9.90;99.90;;;;;;5033076;28;20029;-82
2022/09/28 03:09:52;;;;;;;10.43;7.40;;;9.90;99.90;;;;;;5032901;28;20033;-82
2022/09/28 03:12:20;;;;;;;10.60;7.68;;;10.00;99.90;;;;;;5016972;28;20056;-82
2022/09/28 03:14:46;;;;;;;10.63;8.00;;;10.00;99.90;;;;;;5032970;28;20574;-82
2022/09/28 03:17:12;;;;;;;11.07;7.27;;;10.00;99.90;;;;;;5050676;28;20035;-82
2022/09/28 03:19:38;;;;;;;10.60;7.40;;;10.00;99.90;;;;;;5032808;28;20417;-82
2022/09/28 03:22:04;;;;;;;9.40;7.50;;;10.00;99.90;;;;;;5016477;28;20465;-82
2022/09/28 03:24:30;;;;;;;10.23;6.87;;;10.00;99.90;;;;;;5032876;28;20032;-82
2022/09/28 03:26:56;;;;;;;11.57;7.20;;;10.00;99.90;;;;;;5016338;28;20025;-82
2022/09/28 03:29:22;;;;;;;9.83;7.07;;;10.00;99.90;;;;;;5032749;28;20519;-82
2022/09/28 03:31:53;;;;;;;15.23;8.57;;;10.00;99.90;;;;;;5017150;28;20040;-83
2022/09/28 03:34:19;;;;;;;11.07;8.20;;;10.00;99.90;;;;;;5046201;23;20045;-74
2022/09/28 03:36:45;;;;;;;10.87;8.53;;;10.00;99.90;;;;;;5052990;28;20107;-73
2022/09/28 03:39:11;;;;;;;12.23;8.33;;;10.00;99.90;;;;;;5053058;28;20063;-74
2022/09/28 03:41:37;;;;;;;12.20;8.03;;;10.00;99.90;;;;;;5069500;28;20393;-74
2022/09/28 03:44:04;;;;;;;12.33;7.70;;;10.00;99.90;;;;;;5052947;28;20396;-73
2022/09/28 03:46:31;;;;;;;10.47;7.87;;;10.00;99.90;;;;;;5052632;28;20575;-73
2022/09/28 03:49:03;;;;;;;11.27;8.00;;;10.00;99.90;;;;;;5052730;28;20476;-73
2022/09/28 03:51:29;;;;;;;10.83;8.23;;;10.00;99.90;;;;;;5052523;28;20021;-74
2022/09/28 03:53:54;;;;;;;10.17;7.53;;;10.00;99.90;;;;;;5070792;28;20051;-73
2022/09/28 03:56:20;;;;;;;11.83;8.67;;;10.00;99.90;;;;;;5069831;28;20435;-73
2022/09/28 03:58:46;;;;;;;16.03;9.77;;;10.00;99.90;;;;;;5073281;28;20055;-73
2022/09/28 04:01:17;;;;;;;10.30;8.00;;;10.00;99.90;;;;;;5056606;28;20536;-74
2022/09/28 04:03:45;;;;;;;11.60;8.17;;;10.00;99.90;;;;;;5056503;28;20025;-74
2022/09/28 04:06:11;;;;;;;15.27;9.43;;;10.00;99.90;;;;;;5074374;28;20028;-74
2022/09/28 04:08:38;;;;;;;13.03;9.20;;;10.00;99.90;;;;;;5073313;28;20028;-74
2022/09/28 04:11:04;;;;;;;12.50;9.20;;;10.00;99.90;;;;;;5039972;28;20032;-74
2022/09/28 04:13:30;;;;;;;13.87;9.50;;;10.00;99.90;;;;;;5056756;28;20033;-74
2022/09/28 04:15:59;;;;;;;15.57;10.77;;;10.00;99.90;;;;;;5056614;28;20455;-74
2022/09/28 04:18:28;;;;;;;13.47;10.07;;;10.00;99.90;;;;;;5056370;28;20035;-74
2022/09/28 04:21:15;;;;;;;13.17;9.70;;;10.00;99.90;;;;;;5073007;28;20033;-74
2022/09/28 04:23:44;;;;;;;13.53;9.57;;;10.00;99.90;;;;;;5072672;28;20511;-74
2022/09/28 04:26:15;;;;;;;14.60;9.83;;;10.00;99.90;;;;;;5055698;28;20024;-74
2022/09/28 04:31:28;;;;;;;14.67;10.37;;;10.00;99.90;;;;;;5072250;28;20028;-74
2022/09/28 04:33:56;;;;;;;15.37;10.40;;;10.00;99.90;;;;;;5055481;28;20056;-74
2022/09/28 04:36:23;;;;;;;16.60;11.27;;;10.00;99.90;;;;;;5055585;28;20040;-74
2022/09/28 04:38:53;;;;;;;15.47;11.17;;;10.00;99.90;;;;;;5073304;28;20040;-74
2022/09/28 04:41:21;;;;;;;16.23;11.10;;;10.00;99.90;;;;;;5072158;28;20570;-74
2022/09/28 04:43:48;;;;;;;17.57;11.30;;;9.90;99.90;;;;;;5055468;28;20028;-74
2022/09/28 04:46:14;;;;;;;15.17;11.07;;;10.00;99.90;;;;;;5038834;28;20028;-74
2022/09/28 04:48:47;;;;;;;17.37;11.73;;;9.90;99.90;;;;;;5072040;28;20724;-74
2022/09/28 04:51:34;;;;;;;19.10;12.33;;;10.00;99.90;;;;;;5055585;28;20028;-74
2022/09/28 04:54:00;;;;;;;17.57;11.97;;;10.00;99.90;;;;;;5055332;28;20401;-74
2022/09/28 04:56:26;;;;;;;16.47;11.97;;;10.00;99.90;;;;;;5055225;28;20032;-74
2022/09/28 04:58:52;;;;;;;16.70;12.20;;;10.00;99.90;;;;;;5054878;28;20039;-74
2022/09/28 05:01:22;;;;;;;22.73;14.60;;;10.00;99.90;;;;;;5071702;28;20496;-74
2022/09/28 05:03:55;;;;;;;19.97;13.10;;;10.00;99.90;;;;;;5073080;28;20067;-74
2022/09/28 05:06:39;;;;;;;17.60;13.60;;;10.00;99.90;;;;;;5054845;28;20028;-74
2022/09/28 05:09:08;;;;;;;18.27;12.87;;;10.00;99.90;;;;;;5054201;28;20033;-74
2022/09/28 05:11:34;;;;;;;20.80;13.50;;;10.00;99.90;;;;;;5054860;28;20055;-74
2022/09/28 05:14:00;;;;;;;17.73;13.07;;;10.00;99.90;;;;;;5054963;28;20033;-74
2022/09/28 05:16:28;;;;;;;17.83;13.97;;;10.00;99.90;;;;;;5054971;28;20500;-74
2022/09/28 05:19:13;;;;;;;20.47;13.60;;;10.00;99.90;;;;;;5071556;28;20048;-74
2022/09/28 05:21:43;;;;;;;18.83;12.97;;;10.00;99.90;;;;;;5054451;28;20029;-74
2022/09/28 05:24:10;;;;;;;;;;;10.00;99.90;;;;;;5071827;28;20079;-74
2022/09/28 05:26:37;;;;;;;19.67;13.67;;;10.00;99.90;;;;;;5054467;28;20386;-74
2022/09/28 05:29:04;;;;;;;18.47;13.07;;;10.00;99.90;;;;;;5054537;28;20028;-74
2022/09/28 05:32:03;;;;;;;20.00;13.57;;;10.10;99.90;;;;;;5071836;28;20062;-73
2022/09/28 05:34:35;;;;;;;21.83;15.90;;;10.00;99.90;;;;;;5055399;28;20039;-75
2022/09/28 05:37:01;;;;;;;18.60;13.60;;;10.00;99.90;;;;;;5070839;28;20391;-73
2022/09/28 05:39:29;;;;;;;18.07;12.77;;;10.10;99.90;;;;;;5070940;28;20097;-73
2022/09/28 05:41:56;;;;;;;20.63;14.10;;;10.00;99.90;;;;;;5054173;28;20021;-74
2022/09/28 05:44:23;;;;;;;17.60;12.60;;;10.10;99.90;;;;;;5071113;28;20051;-74
2022/09/28 05:46:52;;;;;;;19.87;13.67;;;10.00;99.90;;;;;;5054161;28;20123;-74
2022/09/28 05:49:18;;;;;;;20.10;14.37;;;10.10;99.90;;;;;;5054368;28;20031;-74
2022/09/28 05:51:45;;;;;;;20.60;13.70;;;10.10;99.90;;;;;;5054386;28;20028;-74
2022/09/28 05:54:12;;;;;;;18.10;13.40;;;10.10;99.90;;;;;;5037754;28;20025;-73
2022/09/28 05:56:41;;;;;;;19.97;13.00;;;10.10;99.90;;;;;;5053852;28;20384;-74
2022/09/28 05:59:08;;;;;;;19.57;14.17;;;10.10;99.90;;;;;;5054073;28;20025;-74
2022/09/28 06:01:35;;;;;;;18.40;13.80;;;10.10;99.90;;;;;;5053983;28;20056;-74
2022/09/28 06:04:02;;;;;;;17.23;12.60;;;10.10;99.90;;;;;;5054019;28;20093;-73
2022/09/28 06:06:28;;;;;;;18.03;13.10;;;10.10;99.90;;;;;;5070283;28;20552;-74
2022/09/28 06:08:55;;;;;;;18.07;12.70;;;10.10;99.90;;;;;;5070259;28;20494;-73
2022/09/28 06:11:51;;;;;;;20.67;12.30;;;10.20;99.90;;;;;;5058166;28;20037;-72
2022/09/28 06:14:24;;;;;;;19.50;13.93;;;10.10;99.90;;;;;;5053741;28;20032;-74
2022/09/28 06:16:51;;;;;;;18.63;12.37;;;10.10;99.90;;;;;;5053424;28;20081;-73
2022/09/28 06:19:17;;;;;;;17.50;11.83;;;10.10;99.90;;;;;;5071412;28;20016;-73
2022/09/28 06:22:19;;;;;;;19.00;12.47;;;10.10;99.90;;;;;;5009058;28;20049;-74
2022/09/28 06:24:53;;;;;;;19.63;12.47;;;10.10;99.90;;;;;;5044564;28;20037;-73
2022/09/28 06:27:19;;;;;;;17.33;11.53;;;10.10;99.90;;;;;;5053396;28;20504;-72
2022/09/28 06:29:45;;;;;;;19.23;12.40;;;10.10;99.90;;;;;;5071153;28;20401;-74
2022/09/28 06:32:12;;;;;;;18.20;12.37;;;10.10;99.90;;;;;;5053393;28;20516;-74
2022/09/28 06:34:40;;;;;;;19.53;12.43;;;10.10;99.90;;;;;;5070159;28;20643;-73
2022/09/28 06:37:07;;;;;;;16.33;11.33;;;10.10;99.90;;;;;;5069794;28;20028;-73
2022/09/28 06:39:34;;;;;;;18.63;12.90;;;10.10;99.90;;;;;;5036758;28;20028;-73
2022/09/28 06:42:02;;;;;;;18.17;12.00;;;10.10;99.90;;;;;;5069918;28;20024;-73
2022/09/28 06:44:38;;;;;;;16.60;11.40;;;10.20;99.90;;;;;;5053344;28;20435;-73
2022/09/28 06:47:37;;;;;;;14.18;9.85;;;10.20;99.90;;;;;;5053097;28;20032;-73
2022/09/28 06:50:11;;;;;;;14.77;9.37;;;10.20;99.90;;;;;;5069795;28;20032;-73
2022/09/28 06:53:09;;;;;;;13.03;9.53;;;10.20;99.90;;;;;;5053200;28;20029;-73
2022/09/28 06:55:49;;;;;;;14.17;9.10;;;10.10;99.90;;;;;;5071176;28;20127;-73
2022/09/28 06:58:18;;;;;;;14.80;9.63;;;10.10;99.90;;;;;;5053070;28;20067;-74
2022/09/28 07:00:46;;;;;;;13.35;9.27;;;10.10;99.90;;;;;;5052789;28;20036;-74
2022/09/28 07:03:14;;;;;;;15.17;10.27;;;10.10;99.90;;;;;;5052965;28;20078;-73
2022/09/28 07:05:54;;;;;;;16.60;10.63;;;10.20;99.90;;;;;;5070940;28;20052;-73
2022/09/28 07:08:38;;;;;;;16.33;8.97;;;10.20;99.90;;;;;;5070965;28;20039;-73
2022/09/28 07:11:40;;;;;;;13.27;8.57;;;10.10;99.90;;;;;;5035358;28;20515;-73
2022/09/28 07:14:29;;;;;;;13.30;9.50;;;10.10;99.90;;;;;;5070801;28;20075;-73
2022/09/28 07:16:55;;;;;;;13.37;9.00;;;10.10;99.90;;;;;;5069571;28;20029;-73
2022/09/28 07:19:21;;;;;;;13.40;8.33;;;10.10;99.90;;;;;;5052708;28;20028;-73
2022/09/28 07:21:51;;;;;;;11.83;7.57;;;10.10;99.90;;;;;;5069321;28;20025;-73
2022/09/28 07:24:17;;;;;;;10.70;7.60;;;10.10;99.90;;;;;;5069523;28;20029;-73
2022/09/28 07:26:55;;;;;;;12.03;7.57;;;10.10;99.90;;;;;;5071159;28;20086;-73
2022/09/28 07:29:39;;;;;;;10.43;7.40;;;10.10;99.90;;;;;;5052687;28;20449;-73
2022/09/28 07:32:22;;;;;;;13.20;7.93;;;10.10;99.90;;;;;;5071343;28;20028;-73
2022/09/28 07:34:57;;;;;;;11.30;7.10;;;10.10;99.90;;;;;;5057037;28;20085;-73
2022/09/28 07:37:36;;;;;;;9.83;6.87;;;10.10;99.90;;;;;;5056581;28;20028;-73
2022/09/28 07:42:49;;;;;;;13.80;7.37;;;10.10;99.90;;;;;;5056593;28;20078;-73
2022/09/28 07:45:16;;;;;;;16.23;6.77;;;10.10;99.90;;;;;;5073339;28;20412;-73
2022/09/28 07:47:42;;;;;;;10.70;7.40;;;10.10;99.90;;;;;;5056605;28;20485;-73
2022/09/28 07:50:20;;;;;;;8.90;6.10;;;10.10;99.90;;;;;;5056470;28;20025;-73
2022/09/28 07:52:57;;;;;;;12.07;7.20;;;10.20;99.90;;;;;;5056528;28;20119;-73
2022/09/28 07:55:48;;;;;;;10.27;7.40;;;10.20;99.90;;;;;;5042842;28;20064;-73
2022/09/28 07:58:40;;;;;;;11.73;7.03;;;10.20;99.90;;;;;;5056042;28;20029;-72
2022/09/28 08:01:45;;;;;;;11.63;7.27;;;10.20;99.90;;;;;;5073478;28;20056;-73
2022/09/28 08:04:13;;;;;;;10.75;7.20;;;10.20;99.90;;;;;;5072964;28;20020;-73
2022/09/28 08:06:43;;;;;;;10.00;6.30;;;10.20;99.90;;;;;;5056063;28;20028;-73
2022/09/28 08:09:11;;;;;;;12.60;7.23;;;10.20;99.90;;;;;;5056175;28;20024;-73
2022/09/28 08:12:06;;;;;;;12.37;8.57;;;10.30;99.90;;;;;;5019180;28;20038;-73
2022/09/28 08:14:42;;;;;;;10.20;7.63;;;10.30;99.90;;;;;;5073976;28;20032;-73
2022/09/28 08:17:21;;;;;;;14.13;8.00;;;10.30;99.90;;;;;;5073725;28;20032;-73
2022/09/28 08:22:35;;;;;;;13.23;7.60;;;10.30;99.90;;;;;;5073855;28;20044;-73
2022/09/28 08:25:02;;;;;;;11.87;8.07;;;10.30;99.90;;;;;;5072520;28;20028;-73
2022/09/28 08:27:28;;;;;;;12.90;9.20;;;10.40;99.90;;;;;;5055774;28;20404;-73
2022/09/28 08:29:54;;;;;;;13.47;8.57;;;10.40;99.90;;;;;;5072179;28;20031;-73
2022/09/28 08:32:38;;;;;;;14.07;8.13;;;10.40;99.90;;;;;;5073547;28;20043;-73
2022/09/28 08:35:24;;;;;;;12.43;8.73;;;10.40;99.90;;;;;;5072820;28;20043;-73
2022/09/28 08:38:27;;;;;;;17.40;9.63;;;10.40;99.90;;;;;;5011496;28;20084;-73
2022/09/28 08:41:39;;;;;;;12.17;8.83;;;10.50;99.90;;;;;;5069066;28;20072;-73
2022/09/28 08:44:22;;;;;;;13.37;8.60;;;10.50;99.90;;;;;;5072442;28;20028;-73
2022/09/28 08:50:25;;;;;;;15.17;9.13;;;10.60;99.90;;;;;;5073291;28;20121;-73
2022/09/28 08:53:42;;;;;;;17.17;8.80;;;10.70;99.90;;;;;;5073392;28;20434;-73
2022/09/28 08:56:34;;;;;;;13.70;8.67;;;10.70;99.90;;;;;;5073097;28;20390;-73
2022/09/28 08:59:10;;;;;;;15.53;9.37;;;10.80;99.90;;;;;;5071796;28;20431;-73
2022/09/28 09:01:58;;;;;;;17.20;9.63;;;10.80;99.90;;;;;;5055255;28;20397;-72
2022/09/28 09:04:25;;;;;;;11.05;7.15;;;10.90;99.90;;;;;;5055135;28;20112;-72
2022/09/28 09:07:35;;;;;;;9.27;6.23;;;10.90;99.90;;;;;;5073042;28;20101;-73
2022/09/28 09:10:36;;;;;;;13.63;7.60;;;10.90;99.90;;;;;;5054854;28;20404;-73
2022/09/28 09:13:34;;;;;;;20.73;8.10;;;11.00;99.90;;;;;;5054566;28;20405;-73
2022/09/28 09:16:16;;;;;;;18.67;8.57;;;11.10;99.90;;;;;;5054974;28;20033;-72
2022/09/28 09:19:21;;;;;;;12.20;7.00;;;11.10;99.90;;;;;;5054592;28;20160;-73
2022/09/28 09:22:20;;;;;;;14.77;7.10;;;11.00;99.90;;;;;;5072086;28;20090;-73
2022/09/28 09:24:46;;;;;;;19.55;9.02;;;11.00;99.90;;;;;;5072760;28;20044;-72
2022/09/28 09:27:27;;;;;;;14.60;8.07;;;11.00;99.90;;;;;;5054445;28;20478;-71
2022/09/28 09:30:15;;;;;;;14.90;8.07;;;11.10;99.90;;;;;;5054372;28;20025;-73
2022/09/28 09:36:01;;;;;;;15.43;8.07;;;11.10;99.90;;;;;;5030235;28;20076;-81
2022/09/28 09:39:26;;;;;;;11.27;7.97;;;11.20;99.90;;;;;;5031896;28;20037;-81
2022/09/28 09:42:36;;;;;;;16.67;9.33;;;11.30;99.90;;;;;;5017129;28;20080;-82
2022/09/28 09:45:43;;;;;;;20.77;10.20;;;11.30;99.90;;;;;;5001720;28;20434;-81
2022/09/28 09:48:26;;;;;;;26.93;12.40;;;11.40;99.90;;;;;;4995141;28;20030;-81
2022/09/28 09:50:57;;;;;;;23.60;11.43;;;11.30;99.90;;;;;;4994568;28;20037;-82
2022/09/28 09:53:26;;;;;;;16.10;10.00;;;11.30;99.90;;;;;;4994742;28;20537;-82
2022/09/28 09:55:57;;;;;;;14.02;9.23;;;11.20;99.90;;;;;;5011898;28;20029;-82
2022/09/28 09:58:45;;;;;;;13.83;8.70;;;11.30;99.90;;;;;;4994363;28;20446;-82
2022/09/28 10:01:20;;;;;;;13.67;9.03;;;11.20;99.90;;;;;;4994508;28;20058;-82
2022/09/28 10:04:27;;;;;;;17.97;9.17;;;11.40;99.90;;;;;;4995675;28;20054;-82
2022/09/28 10:07:02;;;;;;;14.47;8.70;;;11.40;99.90;;;;;;4994413;28;20030;-82
2022/09/28 10:09:40;;;;;;;13.37;8.63;;;11.40;99.90;;;;;;4994373;28;20392;-82
2022/09/28 10:12:28;;;;;;;11.20;6.87;;;11.40;99.90;;;;;;4994739;28;20030;-82
2022/09/28 10:14:54;;;;;;;15.63;8.73;;;11.30;99.90;;;;;;4994570;28;20057;-82
2022/09/28 10:17:26;;;;;;;13.17;8.47;;;11.40;99.90;;;;;;4994159;28;20034;-82
2022/09/28 10:20:14;;;;;;;13.07;7.00;;;11.40;99.90;;;;;;5011721;28;20049;-82
2022/09/28 10:22:42;;;;;;;14.37;6.93;;;11.40;99.90;;;;;;5012126;28;20033;-82
2022/09/28 10:25:13;;;;;;;17.87;7.60;;;11.40;99.90;;;;;;4978590;28;20026;-82
2022/09/28 10:27:46;;;;;;;23.77;8.63;;;11.40;99.90;;;;;;4994009;28;20037;-82
2022/09/28 10:30:17;;;;;;;17.00;6.43;;;11.40;99.90;;;;;;4994091;28;20040;-82
2022/09/28 10:32:46;;;;;;;13.00;6.70;;;11.40;99.90;;;;;;4977923;28;20401;-82
2022/09/28 10:35:30;;;;;;;9.20;5.73;;;11.40;99.90;;;;;;4993988;28;20033;-82
2022/09/28 10:38:17;;;;;;;10.43;5.83;;;11.50;99.90;;;;;;4993747;28;20026;-82
2022/09/28 10:40:58;;;;;;;9.17;5.90;;;11.50;99.90;;;;;;4993497;28;20525;-82
2022/09/28 10:44:06;;;;;;;8.93;5.10;;;11.50;99.90;;;;;;5000540;28;20030;-82
2022/09/28 10:47:00;;;;;;;6.87;5.33;;;11.50;99.90;;;;;;4982796;28;20383;-82
2022/09/28 10:49:39;;;;;;;9.90;5.72;;;11.60;99.90;;;;;;4993685;28;20058;-82
2022/09/28 10:52:41;;;;;;;6.88;4.60;;;11.60;99.90;;;;;;4993753;28;20029;-82
2022/09/28 10:55:35;;;;;;;8.50;5.10;;;11.60;99.90;;;;;;4993686;28;20264;-82
2022/09/28 10:58:24;;;;;;;5.63;3.92;;;11.60;99.90;;;;;;4993561;28;20029;-82
2022/09/28 11:00:51;;;;;;;7.47;4.43;;;11.50;99.90;;;;;;4993365;28;20479;-81
2022/09/28 11:03:23;;;;;;;7.47;4.72;;;11.50;99.90;;;;;;4993366;28;20034;-82
2022/09/28 11:05:57;;;;;;;8.60;5.07;;;11.50;99.90;;;;;;4993136;28;20029;-82
2022/09/28 11:08:48;;;;;;;7.90;4.43;;;11.50;99.90;;;;;;4993387;28;20563;-82
2022/09/28 11:11:21;;;;;;;7.90;4.45;;;11.50;99.90;;;;;;4993369;28;20120;-82
2022/09/28 11:13:59;;;;;;;6.07;3.87;;;11.50;99.90;;;;;;5009854;28;20422;-82
2022/09/28 11:16:32;;;;;;;5.07;3.60;;;11.60;99.90;;;;;;4993156;28;20038;-81
2022/09/28 11:19:28;;;;;;;10.43;3.77;;;11.60;99.90;;;;;;4993363;28;20057;-81
2022/09/28 11:21:54;;;;;;;4.90;3.10;;;11.70;99.90;;;;;;4993417;28;20509;-82
2022/09/28 11:24:27;;;;;;;7.95;3.33;;;11.90;99.90;;;;;;4993311;28;20113;-82
2022/09/28 11:26:58;;;;;;;7.30;3.63;;;11.90;99.90;;;;;;4993218;28;20030;-82
2022/09/28 11:29:49;;;;;;;5.88;3.45;;;12.10;99.90;;;;;;4977410;28;20033;-82
2022/09/28 11:32:17;;;;;;;11.52;3.92;;;12.20;99.90;;;;;;5011133;28;20156;-82
2022/09/28 11:35:30;;;;;;;6.70;2.97;;;12.20;99.90;;;;;;4987320;28;20030;-82
2022/09/28 11:38:20;;;;;;;5.78;2.70;;;12.20;99.90;;;;;;4993242;28;20030;-82
2022/09/28 11:41:35;;;;;;;6.47;3.75;;;12.20;99.90;;;;;;5010805;28;20092;-82
2022/09/28 11:44:31;;;;;;;5.63;3.85;;;12.30;99.90;;;;;;4993223;28;20030;-82
2022/09/28 11:47:20;;;;;;;4.75;3.03;;;12.30;99.90;;;;;;4992985;28;20117;-82
2022/09/28 11:49:49;;;;;;;8.13;3.90;;;12.40;99.90;;;;;;4992715;28;20570;-82
2022/09/28 11:52:53;;;;;;;5.53;2.95;;;12.40;99.90;;;;;;4993085;28;20037;-82
2022/09/28 11:55:35;;;;;;;6.88;3.75;;;12.50;99.90;;;;;;4934166;29;20023;-82
2022/09/28 11:58:25;;;;;;;8.90;3.78;;;12.50;99.90;;;;;;4988530;28;20197;-82
2022/09/28 12:01:18;;;;;;;4.78;3.20;;;12.50;99.90;;;;;;4992978;28;20036;-82
2022/09/28 12:04:22;;;;;;;7.15;3.28;;;12.40;99.90;;;;;;4979872;28;20498;-82
2022/09/28 12:07:06;;;;;;;6.70;2.78;;;12.40;99.90;;;;;;4992820;28;20483;-82
2022/09/28 12:10:02;;;;;;;7.07;3.15;;;12.50;99.90;;;;;;4992828;28;20457;-82
2022/09/28 12:12:44;;;;;;;4.63;2.70;;;12.50;99.90;;;;;;4992931;28;20038;-82
2022/09/28 12:15:17;;;;;;;4.95;2.75;;;12.60;99.90;;;;;;4992947;28;20022;-82
2022/09/28 12:17:48;;;;;;;4.40;2.80;;;12.60;99.90;;;;;;5011203;28;20049;-82
2022/09/28 12:20:38;;;;;;;6.78;2.97;;;12.70;99.90;;;;;;4996368;28;20080;-82
2022/09/28 12:23:17;;;;;;;5.15;2.75;;;12.80;99.90;;;;;;5013837;28;20112;-81
2022/09/28 12:25:58;;;;;;;4.22;2.50;;;12.80;99.90;;;;;;5013742;28;20084;-82
2022/09/28 12:28:32;;;;;;;4.63;2.58;;;12.90;99.90;;;;;;4996676;28;20037;-82
2022/09/28 12:31:25;;;;;;;11.05;4.95;;;12.90;99.90;;;;;;4996467;28;20109;-82
2022/09/28 12:33:51;;;;;;;5.72;3.08;;;12.90;99.90;;;;;;5013709;28;20594;-82
2022/09/28 12:36:39;;;;;;;5.45;2.65;;;12.80;99.90;;;;;;5013682;28;20506;-82
2022/09/28 12:39:31;;;;;;;5.05;2.58;;;12.90;99.90;;;;;;5013498;28;20034;-82
2022/09/28 12:42:27;;;;;;;5.25;2.60;;;12.90;99.90;;;;;;4996333;28;20569;-82
2022/09/28 12:45:05;;;;;;;6.32;2.33;;;12.90;99.90;;;;;;5013711;28;20029;-82
2022/09/28 12:47:31;;;;;;;4.50;2.47;;;12.90;99.90;;;;;;5013443;28;20034;-82
2022/09/28 12:50:07;;;;;;;6.25;2.45;;;12.90;99.90;;;;;;5013270;28;20380;-82
2022/09/28 12:53:01;;;;;;;5.75;3.00;;;12.80;99.90;;;;;;5013490;28;20041;-82
2022/09/28 12:56:01;;;;;;;4.97;2.63;;;12.90;99.90;;;;;;4995983;28;20022;-82
2022/09/28 12:58:36;;;;;;;4.50;1.90;;;12.80;99.90;;;;;;4973123;28;20134;-82
2022/09/28 13:01:34;;;;;;;2.75;2.00;;;12.80;99.90;;;;;;5013204;28;20030;-82
2022/09/28 13:04:16;;;;;;;4.57;2.15;;;12.80;99.90;;;;;;4995644;28;20128;-82
2022/09/28 13:06:54;;;;;;;5.05;2.00;;;12.70;99.90;;;;;;5012829;28;20049;-82
2022/09/28 13:09:25;;;;;;;3.22;1.67;;;12.70;99.90;;;;;;5012915;28;20025;-82
2022/09/28 13:12:08;;;;;;;3.22;1.85;;;12.70;99.90;;;;;;5013048;28;20025;-82
2022/09/28 13:14:47;;;;;;;2.90;1.63;;;12.70;99.90;;;;;;5012875;28;20474;-82
2022/09/28 13:17:30;;;;;;;;;;;12.70;99.90;;;;;;4995418;28;20034;-82
2022/09/28 13:20:34;;;;;;;4.57;2.10;;;12.70;99.90;;;;;;5012678;28;19915;-82
2022/09/28 13:23:19;;;;;;;5.40;2.30;;;12.70;99.90;;;;;;4995212;28;20033;-82
2022/09/28 13:26:08;;;;;;;4.32;2.17;;;12.70;99.90;;;;;;5012521;28;20073;-82
2022/09/28 13:28:36;;;;;;;3.25;1.70;;;12.70;99.90;;;;;;5012755;28;20459;-82
2022/09/28 13:31:03;;;;;;;3.90;1.50;;;12.70;99.90;;;;;;4994649;28;20049;-82
2022/09/28 13:33:42;;;;;;;4.65;2.28;;;12.70;99.90;;;;;;4994940;28;20030;-82
2022/09/28 13:36:26;;;;;;;4.78;2.45;;;12.60;99.90;;;;;;5012629;28;20091;-82
2022/09/28 13:38:54;;;;;;;6.93;2.85;;;12.60;99.90;;;;;;5012454;28;20034;-82
2022/09/28 13:41:46;;;;;;;6.38;2.92;;;12.60;99.90;;;;;;5012442;28;20029;-82
2022/09/28 13:44:12;;;;;;;4.68;2.47;;;12.60;99.90;;;;;;5012239;28;20475;-82
2022/09/28 13:46:46;;;;;;;5.13;2.42;;;12.50;99.90;;;;;;4994558;28;20041;-82
2022/09/28 13:49:20;;;;;;;5.60;2.30;;;12.50;99.90;;;;;;5012225;28;20032;-82